sensor_id;sensor_type;location;lat;lon;timestamp;P1;durP1;ratioP1;P2;durP2;ratioP2
58982;SDS011;44771;49.982;8.560;2023-04-24T00:02:38;12.25;;;11.23;;
58982;SDS011;44771;49.982;8.560;2023-04-24T00:07:41;12.40;;;11.57;;
58982;SDS011;44771;49.982;8.560;2023-04-24T00:12:43;11.50;;;10.57;;
58982;SDS011;44771;49.982;8.560;2023-04-24T00:17:45;13.05;;;11.80;;
58982;SDS011;44771;49.982;8.560;2023-04-24T00:22:48;13.00;;;12.05;;
58982;SDS011;44771;49.982;8.560;2023-04-24T00:27:50;13.07;;;12.00;;
58982;SDS011;44771;49.982;8.560;2023-04-24T00:32:52;12.60;;;11.90;;
58982;SDS011;44771;49.982;8.560;2023-04-24T00:37:55;10.50;;;9.80;;
58982;SDS011;44771;49.982;8.560;2023-04-24T00:42:57;12.55;;;11.65;;
58982;SDS011;44771;49.982;8.560;2023-04-24T00:47:58;11.93;;;11.07;;
58982;SDS011;44771;49.982;8.560;2023-04-24T00:53:03;12.37;;;11.68;;
58982;SDS011;44771;49.982;8.560;2023-04-24T00:58:05;12.13;;;11.43;;
58982;SDS011;44771;49.982;8.560;2023-04-24T01:03:06;11.60;;;10.90;;
58982;SDS011;44771;49.982;8.560;2023-04-24T01:08:10;11.38;;;10.45;;
58982;SDS011;44771;49.982;8.560;2023-04-24T01:13:12;11.95;;;11.15;;
58982;SDS011;44771;49.982;8.560;2023-04-24T01:18:15;11.65;;;10.90;;
58982;SDS011;44771;49.982;8.560;2023-04-24T01:23:18;12.18;;;11.25;;
58982;SDS011;44771;49.982;8.560;2023-04-24T01:28:20;12.23;;;11.23;;
58982;SDS011;44771;49.982;8.560;2023-04-24T01:33:22;11.70;;;11.00;;
58982;SDS011;44771;49.982;8.560;2023-04-24T01:38:25;11.55;;;10.77;;
58982;SDS011;44771;49.982;8.560;2023-04-24T01:43:27;11.45;;;10.85;;
58982;SDS011;44771;49.982;8.560;2023-04-24T01:48:29;14.57;;;13.27;;
58982;SDS011;44771;49.982;8.560;2023-04-24T01:53:32;12.82;;;11.93;;
58982;SDS011;44771;49.982;8.560;2023-04-24T01:58:34;12.00;;;11.20;;
58982;SDS011;44771;49.982;8.560;2023-04-24T02:03:37;11.23;;;10.40;;
58982;SDS011;44771;49.982;8.560;2023-04-24T02:08:40;12.18;;;11.48;;
58982;SDS011;44771;49.982;8.560;2023-04-24T02:13:42;11.82;;;11.12;;
58982;SDS011;44771;49.982;8.560;2023-04-24T02:18:43;11.70;;;10.95;;
58982;SDS011;44771;49.982;8.560;2023-04-24T02:23:46;12.43;;;11.73;;
58982;SDS011;44771;49.982;8.560;2023-04-24T02:28:48;10.48;;;9.70;;
58982;SDS011;44771;49.982;8.560;2023-04-24T02:33:53;11.65;;;10.70;;
58982;SDS011;44771;49.982;8.560;2023-04-24T02:43:58;11.25;;;10.55;;
58982;SDS011;44771;49.982;8.560;2023-04-24T02:49:00;11.90;;;10.93;;
58982;SDS011;44771;49.982;8.560;2023-04-24T02:54:03;11.50;;;10.82;;
58982;SDS011;44771;49.982;8.560;2023-04-24T02:59:05;13.70;;;12.90;;
58982;SDS011;44771;49.982;8.560;2023-04-24T03:04:06;11.77;;;10.98;;
58982;SDS011;44771;49.982;8.560;2023-04-24T03:09:10;11.73;;;11.12;;
58982;SDS011;44771;49.982;8.560;2023-04-24T03:14:11;11.88;;;11.07;;
58982;SDS011;44771;49.982;8.560;2023-04-24T03:19:13;12.18;;;11.45;;
58982;SDS011;44771;49.982;8.560;2023-04-24T03:24:16;11.80;;;10.98;;
58982;SDS011;44771;49.982;8.560;2023-04-24T03:29:18;11.30;;;10.60;;
58982;SDS011;44771;49.982;8.560;2023-04-24T03:34:20;11.02;;;10.32;;
58982;SDS011;44771;49.982;8.560;2023-04-24T03:39:23;11.07;;;10.30;;
58982;SDS011;44771;49.982;8.560;2023-04-24T03:44:24;12.48;;;11.68;;
58982;SDS011;44771;49.982;8.560;2023-04-24T03:49:26;9.90;;;9.27;;
58982;SDS011;44771;49.982;8.560;2023-04-24T03:54:29;11.32;;;10.48;;
58982;SDS011;44771;49.982;8.560;2023-04-24T03:59:31;12.77;;;11.98;;
58982;SDS011;44771;49.982;8.560;2023-04-24T04:04:33;12.90;;;12.05;;
58982;SDS011;44771;49.982;8.560;2023-04-24T04:09:36;15.10;;;13.75;;
58982;SDS011;44771;49.982;8.560;2023-04-24T04:14:38;10.98;;;10.38;;
58982;SDS011;44771;49.982;8.560;2023-04-24T04:19:40;12.23;;;11.43;;
58982;SDS011;44771;49.982;8.560;2023-04-24T04:24:43;11.50;;;10.90;;
58982;SDS011;44771;49.982;8.560;2023-04-24T04:29:45;11.68;;;10.98;;
58982;SDS011;44771;49.982;8.560;2023-04-24T04:34:46;12.25;;;11.55;;
58982;SDS011;44771;49.982;8.560;2023-04-24T04:39:50;12.80;;;12.10;;
58982;SDS011;44771;49.982;8.560;2023-04-24T04:44:51;12.65;;;11.93;;
58982;SDS011;44771;49.982;8.560;2023-04-24T04:49:53;12.57;;;11.90;;
58982;SDS011;44771;49.982;8.560;2023-04-24T04:54:57;13.48;;;12.50;;
58982;SDS011;44771;49.982;8.560;2023-04-24T04:59:58;13.43;;;12.52;;
58982;SDS011;44771;49.982;8.560;2023-04-24T05:05:00;13.15;;;12.37;;
58982;SDS011;44771;49.982;8.560;2023-04-24T05:10:04;13.82;;;12.70;;
58982;SDS011;44771;49.982;8.560;2023-04-24T05:15:07;14.20;;;13.30;;
58982;SDS011;44771;49.982;8.560;2023-04-24T05:20:09;13.07;;;12.27;;
58982;SDS011;44771;49.982;8.560;2023-04-24T05:25:13;14.20;;;13.30;;
58982;SDS011;44771;49.982;8.560;2023-04-24T05:30:15;13.30;;;12.40;;
58982;SDS011;44771;49.982;8.560;2023-04-24T05:35:17;12.80;;;11.65;;
58982;SDS011;44771;49.982;8.560;2023-04-24T05:40:20;12.68;;;11.82;;
58982;SDS011;44771;49.982;8.560;2023-04-24T05:45:22;12.80;;;12.00;;
58982;SDS011;44771;49.982;8.560;2023-04-24T05:50:24;13.65;;;12.65;;
58982;SDS011;44771;49.982;8.560;2023-04-24T05:55:27;14.07;;;13.18;;
58982;SDS011;44771;49.982;8.560;2023-04-24T06:00:29;13.40;;;12.40;;
58982;SDS011;44771;49.982;8.560;2023-04-24T06:05:30;13.13;;;12.25;;
58982;SDS011;44771;49.982;8.560;2023-04-24T06:10:34;13.13;;;12.10;;
58982;SDS011;44771;49.982;8.560;2023-04-24T06:15:35;13.18;;;12.37;;
58982;SDS011;44771;49.982;8.560;2023-04-24T06:20:38;13.80;;;12.88;;
58982;SDS011;44771;49.982;8.560;2023-04-24T06:25:41;16.08;;;14.75;;
58982;SDS011;44771;49.982;8.560;2023-04-24T06:30:43;11.43;;;10.52;;
58982;SDS011;44771;49.982;8.560;2023-04-24T06:35:45;15.35;;;14.15;;
58982;SDS011;44771;49.982;8.560;2023-04-24T06:40:48;13.75;;;12.77;;
58982;SDS011;44771;49.982;8.560;2023-04-24T06:45:49;15.10;;;13.88;;
58982;SDS011;44771;49.982;8.560;2023-04-24T06:50:54;14.67;;;13.67;;
58982;SDS011;44771;49.982;8.560;2023-04-24T06:55:57;12.80;;;11.80;;
58982;SDS011;44771;49.982;8.560;2023-04-24T07:00:59;14.32;;;13.13;;
58982;SDS011;44771;49.982;8.560;2023-04-24T07:06:01;14.38;;;13.13;;
58982;SDS011;44771;49.982;8.560;2023-04-24T07:11:04;14.13;;;13.07;;
58982;SDS011;44771;49.982;8.560;2023-04-24T07:16:06;16.02;;;14.63;;
58982;SDS011;44771;49.982;8.560;2023-04-24T07:21:08;14.02;;;12.73;;
58982;SDS011;44771;49.982;8.560;2023-04-24T07:26:11;13.50;;;12.63;;
58982;SDS011;44771;49.982;8.560;2023-04-24T07:31:13;14.93;;;13.95;;
58982;SDS011;44771;49.982;8.560;2023-04-24T07:36:15;13.07;;;12.05;;
58982;SDS011;44771;49.982;8.560;2023-04-24T07:41:18;12.45;;;11.70;;
58982;SDS011;44771;49.982;8.560;2023-04-24T07:46:20;14.52;;;13.20;;
58982;SDS011;44771;49.982;8.560;2023-04-24T07:51:22;12.60;;;11.70;;
58982;SDS011;44771;49.982;8.560;2023-04-24T07:56:25;14.75;;;13.65;;
58982;SDS011;44771;49.982;8.560;2023-04-24T08:01:28;11.93;;;11.23;;
58982;SDS011;44771;49.982;8.560;2023-04-24T08:06:30;11.43;;;10.63;;
58982;SDS011;44771;49.982;8.560;2023-04-24T08:11:33;13.35;;;12.52;;
58982;SDS011;44771;49.982;8.560;2023-04-24T08:16:35;12.55;;;11.75;;
58982;SDS011;44771;49.982;8.560;2023-04-24T08:21:36;14.68;;;13.70;;
58982;SDS011;44771;49.982;8.560;2023-04-24T08:26:40;13.13;;;12.02;;
58982;SDS011;44771;49.982;8.560;2023-04-24T08:31:42;12.13;;;11.32;;
58982;SDS011;44771;49.982;8.560;2023-04-24T08:36:43;13.85;;;12.93;;
58982;SDS011;44771;49.982;8.560;2023-04-24T08:41:49;13.38;;;12.37;;
58982;SDS011;44771;49.982;8.560;2023-04-24T08:46:52;13.20;;;12.43;;
58982;SDS011;44771;49.982;8.560;2023-04-24T08:51:55;13.45;;;12.57;;
58982;SDS011;44771;49.982;8.560;2023-04-24T08:56:59;13.35;;;12.35;;
58982;SDS011;44771;49.982;8.560;2023-04-24T09:02:02;13.52;;;12.63;;
58982;SDS011;44771;49.982;8.560;2023-04-24T09:07:05;12.68;;;11.60;;
58982;SDS011;44771;49.982;8.560;2023-04-24T09:12:10;14.15;;;13.05;;
58982;SDS011;44771;49.982;8.560;2023-04-24T09:17:13;14.38;;;13.48;;
58982;SDS011;44771;49.982;8.560;2023-04-24T09:22:14;13.95;;;12.73;;
58982;SDS011;44771;49.982;8.560;2023-04-24T09:27:18;14.18;;;13.05;;
58982;SDS011;44771;49.982;8.560;2023-04-24T09:32:20;13.75;;;12.85;;
58982;SDS011;44771;49.982;8.560;2023-04-24T09:37:27;12.10;;;11.32;;
58982;SDS011;44771;49.982;8.560;2023-04-24T09:42:31;13.00;;;11.98;;
58982;SDS011;44771;49.982;8.560;2023-04-24T09:47:35;12.88;;;12.07;;
58982;SDS011;44771;49.982;8.560;2023-04-24T09:52:39;11.93;;;11.03;;
58982;SDS011;44771;49.982;8.560;2023-04-24T09:57:53;13.35;;;12.50;;
58982;SDS011;44771;49.982;8.560;2023-04-24T10:02:56;11.25;;;10.45;;
58982;SDS011;44771;49.982;8.560;2023-04-24T10:08:00;12.63;;;11.82;;
58982;SDS011;44771;49.982;8.560;2023-04-24T10:13:05;11.95;;;11.25;;
58982;SDS011;44771;49.982;8.560;2023-04-24T10:18:08;13.73;;;12.63;;
58982;SDS011;44771;49.982;8.560;2023-04-24T10:23:16;11.73;;;11.12;;
58982;SDS011;44771;49.982;8.560;2023-04-24T10:28:28;12.57;;;11.45;;
58982;SDS011;44771;49.982;8.560;2023-04-24T10:33:31;13.73;;;12.82;;
58982;SDS011;44771;49.982;8.560;2023-04-24T10:38:33;11.38;;;10.60;;
58982;SDS011;44771;49.982;8.560;2023-04-24T10:43:37;13.40;;;12.60;;
58982;SDS011;44771;49.982;8.560;2023-04-24T10:48:42;13.98;;;13.00;;
58982;SDS011;44771;49.982;8.560;2023-04-24T10:53:44;13.35;;;12.55;;
58982;SDS011;44771;49.982;8.560;2023-04-24T10:58:49;13.02;;;12.23;;
58982;SDS011;44771;49.982;8.560;2023-04-24T11:03:53;13.10;;;12.30;;
58982;SDS011;44771;49.982;8.560;2023-04-24T11:08:59;14.20;;;12.95;;
58982;SDS011;44771;49.982;8.560;2023-04-24T11:14:06;14.10;;;13.23;;
58982;SDS011;44771;49.982;8.560;2023-04-24T11:19:09;14.00;;;13.03;;
58982;SDS011;44771;49.982;8.560;2023-04-24T11:24:22;13.30;;;12.52;;
58982;SDS011;44771;49.982;8.560;2023-04-24T11:29:39;12.10;;;11.40;;
58982;SDS011;44771;49.982;8.560;2023-04-24T11:34:46;13.52;;;12.73;;
58982;SDS011;44771;49.982;8.560;2023-04-24T11:39:52;11.85;;;11.15;;
58982;SDS011;44771;49.982;8.560;2023-04-24T11:44:56;11.07;;;10.48;;
58982;SDS011;44771;49.982;8.560;2023-04-24T11:50:00;12.60;;;11.70;;
58982;SDS011;44771;49.982;8.560;2023-04-24T12:00:30;12.93;;;12.15;;
58982;SDS011;44771;49.982;8.560;2023-04-24T12:05:33;12.80;;;12.10;;
58982;SDS011;44771;49.982;8.560;2023-04-24T12:10:36;12.00;;;11.02;;
58982;SDS011;44771;49.982;8.560;2023-04-24T12:15:39;11.07;;;10.40;;
58982;SDS011;44771;49.982;8.560;2023-04-24T12:20:41;12.82;;;12.02;;
58982;SDS011;44771;49.982;8.560;2023-04-24T12:25:43;11.88;;;11.18;;
58982;SDS011;44771;49.982;8.560;2023-04-24T12:30:47;11.50;;;10.85;;
58982;SDS011;44771;49.982;8.560;2023-04-24T12:35:51;13.62;;;12.65;;
58982;SDS011;44771;49.982;8.560;2023-04-24T12:46:48;11.98;;;11.18;;
58982;SDS011;44771;49.982;8.560;2023-04-24T12:51:50;12.05;;;11.15;;
58982;SDS011;44771;49.982;8.560;2023-04-24T12:56:52;13.05;;;11.85;;
58982;SDS011;44771;49.982;8.560;2023-04-24T13:01:55;13.80;;;12.68;;
58982;SDS011;44771;49.982;8.560;2023-04-24T13:06:57;14.00;;;12.98;;
58982;SDS011;44771;49.982;8.560;2023-04-24T13:11:59;15.05;;;13.95;;
58982;SDS011;44771;49.982;8.560;2023-04-24T13:17:02;14.32;;;13.23;;
58982;SDS011;44771;49.982;8.560;2023-04-24T13:22:04;14.77;;;13.48;;
58982;SDS011;44771;49.982;8.560;2023-04-24T13:27:07;15.75;;;14.50;;
58982;SDS011;44771;49.982;8.560;2023-04-24T13:32:10;13.40;;;12.32;;
58982;SDS011;44771;49.982;8.560;2023-04-24T13:37:12;14.15;;;13.15;;
58982;SDS011;44771;49.982;8.560;2023-04-24T13:42:14;13.90;;;12.82;;
58982;SDS011;44771;49.982;8.560;2023-04-24T13:47:17;14.63;;;13.32;;
58982;SDS011;44771;49.982;8.560;2023-04-24T13:52:19;15.02;;;13.75;;
58982;SDS011;44771;49.982;8.560;2023-04-24T13:57:21;20.05;;;13.38;;
58982;SDS011;44771;49.982;8.560;2023-04-24T14:02:24;14.60;;;13.20;;
58982;SDS011;44771;49.982;8.560;2023-04-24T14:07:26;14.32;;;13.07;;
58982;SDS011;44771;49.982;8.560;2023-04-24T14:12:29;14.85;;;13.65;;
58982;SDS011;44771;49.982;8.560;2023-04-24T14:17:32;13.45;;;12.43;;
58982;SDS011;44771;49.982;8.560;2023-04-24T14:22:34;14.93;;;13.68;;
58982;SDS011;44771;49.982;8.560;2023-04-24T14:27:35;14.77;;;13.68;;
58982;SDS011;44771;49.982;8.560;2023-04-24T14:32:41;14.48;;;13.40;;
58982;SDS011;44771;49.982;8.560;2023-04-24T14:37:43;13.93;;;12.93;;
58982;SDS011;44771;49.982;8.560;2023-04-24T14:42:44;13.15;;;12.25;;
58982;SDS011;44771;49.982;8.560;2023-04-24T14:47:47;15.75;;;14.60;;
58982;SDS011;44771;49.982;8.560;2023-04-24T14:52:49;13.68;;;12.48;;
58982;SDS011;44771;49.982;8.560;2023-04-24T14:57:51;13.57;;;12.35;;
58982;SDS011;44771;49.982;8.560;2023-04-24T15:02:54;11.35;;;10.35;;
58982;SDS011;44771;49.982;8.560;2023-04-24T15:07:56;14.77;;;12.37;;
58982;SDS011;44771;49.982;8.560;2023-04-24T15:12:58;14.23;;;13.13;;
58982;SDS011;44771;49.982;8.560;2023-04-24T15:18:01;15.02;;;13.73;;
58982;SDS011;44771;49.982;8.560;2023-04-24T15:23:03;13.88;;;12.88;;
58982;SDS011;44771;49.982;8.560;2023-04-24T15:28:05;15.07;;;13.80;;
58982;SDS011;44771;49.982;8.560;2023-04-24T15:33:08;14.77;;;12.45;;
58982;SDS011;44771;49.982;8.560;2023-04-24T15:38:10;13.50;;;12.23;;
58982;SDS011;44771;49.982;8.560;2023-04-24T15:43:11;12.98;;;12.05;;
58982;SDS011;44771;49.982;8.560;2023-04-24T15:48:14;14.95;;;13.65;;
58982;SDS011;44771;49.982;8.560;2023-04-24T15:53:16;13.48;;;12.27;;
58982;SDS011;44771;49.982;8.560;2023-04-24T15:58:19;14.52;;;13.15;;
58982;SDS011;44771;49.982;8.560;2023-04-24T16:03:22;14.55;;;13.15;;
58982;SDS011;44771;49.982;8.560;2023-04-24T16:08:24;13.88;;;12.63;;
58982;SDS011;44771;49.982;8.560;2023-04-24T16:13:28;14.50;;;13.10;;
58982;SDS011;44771;49.982;8.560;2023-04-24T16:18:32;14.18;;;12.90;;
58982;SDS011;44771;49.982;8.560;2023-04-24T16:23:34;13.80;;;12.82;;
58982;SDS011;44771;49.982;8.560;2023-04-24T16:28:36;12.95;;;11.90;;
58982;SDS011;44771;49.982;8.560;2023-04-24T16:33:39;15.65;;;14.23;;
58982;SDS011;44771;49.982;8.560;2023-04-24T16:38:46;14.00;;;12.90;;
58982;SDS011;44771;49.982;8.560;2023-04-24T16:43:49;16.27;;;12.95;;
58982;SDS011;44771;49.982;8.560;2023-04-24T16:48:53;14.57;;;13.57;;
58982;SDS011;44771;49.982;8.560;2023-04-24T16:53:55;13.93;;;12.85;;
58982;SDS011;44771;49.982;8.560;2023-04-24T16:58:56;13.52;;;12.43;;
58982;SDS011;44771;49.982;8.560;2023-04-24T17:04:00;12.98;;;12.07;;
58982;SDS011;44771;49.982;8.560;2023-04-24T17:09:04;15.68;;;14.48;;
58982;SDS011;44771;49.982;8.560;2023-04-24T17:14:06;13.95;;;12.95;;
58982;SDS011;44771;49.982;8.560;2023-04-24T17:19:09;15.00;;;13.73;;
58982;SDS011;44771;49.982;8.560;2023-04-24T17:24:11;14.50;;;13.05;;
58982;SDS011;44771;49.982;8.560;2023-04-24T17:29:13;15.45;;;14.27;;
58982;SDS011;44771;49.982;8.560;2023-04-24T17:34:17;15.02;;;13.80;;
58982;SDS011;44771;49.982;8.560;2023-04-24T17:39:19;15.50;;;14.40;;
58982;SDS011;44771;49.982;8.560;2023-04-24T17:44:20;14.00;;;12.95;;
58982;SDS011;44771;49.982;8.560;2023-04-24T17:49:23;14.02;;;13.00;;
58982;SDS011;44771;49.982;8.560;2023-04-24T17:54:25;13.80;;;12.77;;
58982;SDS011;44771;49.982;8.560;2023-04-24T17:59:27;14.90;;;13.75;;
58982;SDS011;44771;49.982;8.560;2023-04-24T18:04:30;15.35;;;14.13;;
58982;SDS011;44771;49.982;8.560;2023-04-24T18:09:32;14.57;;;13.38;;
58982;SDS011;44771;49.982;8.560;2023-04-24T18:14:34;15.45;;;14.25;;
58982;SDS011;44771;49.982;8.560;2023-04-24T18:19:37;16.87;;;15.57;;
58982;SDS011;44771;49.982;8.560;2023-04-24T18:24:38;14.48;;;13.38;;
58982;SDS011;44771;49.982;8.560;2023-04-24T18:29:40;14.57;;;13.40;;
58982;SDS011;44771;49.982;8.560;2023-04-24T18:34:43;17.90;;;16.10;;
58982;SDS011;44771;49.982;8.560;2023-04-24T18:39:45;15.68;;;14.38;;
58982;SDS011;44771;49.982;8.560;2023-04-24T18:44:47;16.58;;;15.27;;
58982;SDS011;44771;49.982;8.560;2023-04-24T18:49:50;13.32;;;12.25;;
58982;SDS011;44771;49.982;8.560;2023-04-24T18:54:52;15.68;;;14.30;;
58982;SDS011;44771;49.982;8.560;2023-04-24T18:59:54;15.45;;;14.35;;
58982;SDS011;44771;49.982;8.560;2023-04-24T19:04:57;14.87;;;13.85;;
58982;SDS011;44771;49.982;8.560;2023-04-24T19:09:59;14.73;;;13.60;;
58982;SDS011;44771;49.982;8.560;2023-04-24T19:15:01;16.02;;;14.65;;
58982;SDS011;44771;49.982;8.560;2023-04-24T19:20:05;13.20;;;12.23;;
58982;SDS011;44771;49.982;8.560;2023-04-24T19:25:07;15.30;;;14.30;;
58982;SDS011;44771;49.982;8.560;2023-04-24T19:30:09;14.90;;;13.90;;
58982;SDS011;44771;49.982;8.560;2023-04-24T19:35:13;14.57;;;13.57;;
58982;SDS011;44771;49.982;8.560;2023-04-24T19:40:15;14.50;;;13.50;;
58982;SDS011;44771;49.982;8.560;2023-04-24T19:45:17;14.60;;;13.50;;
58982;SDS011;44771;49.982;8.560;2023-04-24T19:50:20;17.25;;;15.88;;
58982;SDS011;44771;49.982;8.560;2023-04-24T19:55:22;14.27;;;13.20;;
58982;SDS011;44771;49.982;8.560;2023-04-24T20:00:24;14.98;;;13.68;;
58982;SDS011;44771;49.982;8.560;2023-04-24T20:05:27;14.35;;;13.27;;
58982;SDS011;44771;49.982;8.560;2023-04-24T20:10:29;14.43;;;13.43;;
58982;SDS011;44771;49.982;8.560;2023-04-24T20:15:31;15.20;;;14.10;;
58982;SDS011;44771;49.982;8.560;2023-04-24T20:20:34;15.48;;;14.35;;
58982;SDS011;44771;49.982;8.560;2023-04-24T20:25:36;15.40;;;14.20;;
58982;SDS011;44771;49.982;8.560;2023-04-24T20:30:38;15.05;;;13.95;;
58982;SDS011;44771;49.982;8.560;2023-04-24T20:35:41;16.77;;;15.55;;
58982;SDS011;44771;49.982;8.560;2023-04-24T20:40:43;17.27;;;15.95;;
58982;SDS011;44771;49.982;8.560;2023-04-24T20:51:01;16.50;;;15.10;;
58982;SDS011;44771;49.982;8.560;2023-04-24T20:56:03;16.37;;;15.07;;
58982;SDS011;44771;49.982;8.560;2023-04-24T21:01:04;15.15;;;13.95;;
58982;SDS011;44771;49.982;8.560;2023-04-24T21:06:08;15.45;;;14.35;;
58982;SDS011;44771;49.982;8.560;2023-04-24T21:11:10;15.30;;;14.15;;
58982;SDS011;44771;49.982;8.560;2023-04-24T21:16:12;16.62;;;15.13;;
58982;SDS011;44771;49.982;8.560;2023-04-24T21:21:15;14.32;;;13.23;;
58982;SDS011;44771;49.982;8.560;2023-04-24T21:26:17;17.20;;;15.70;;
58982;SDS011;44771;49.982;8.560;2023-04-24T21:31:19;15.75;;;14.45;;
58982;SDS011;44771;49.982;8.560;2023-04-24T21:36:22;14.35;;;12.90;;
58982;SDS011;44771;49.982;8.560;2023-04-24T21:41:23;16.62;;;15.32;;
58982;SDS011;44771;49.982;8.560;2023-04-24T21:46:25;17.98;;;16.40;;
58982;SDS011;44771;49.982;8.560;2023-04-24T21:51:28;17.08;;;15.40;;
58982;SDS011;44771;49.982;8.560;2023-04-24T21:56:30;16.65;;;15.35;;
58982;SDS011;44771;49.982;8.560;2023-04-24T22:01:32;17.60;;;16.17;;
58982;SDS011;44771;49.982;8.560;2023-04-24T22:06:35;16.90;;;15.40;;
58982;SDS011;44771;49.982;8.560;2023-04-24T22:11:37;16.85;;;15.40;;
58982;SDS011;44771;49.982;8.560;2023-04-24T22:16:39;16.17;;;14.85;;
58982;SDS011;44771;49.982;8.560;2023-04-24T22:21:42;17.17;;;15.57;;
58982;SDS011;44771;49.982;8.560;2023-04-24T22:26:44;18.08;;;16.50;;
58982;SDS011;44771;49.982;8.560;2023-04-24T22:31:46;17.83;;;16.12;;
58982;SDS011;44771;49.982;8.560;2023-04-24T22:36:49;18.12;;;16.33;;
58982;SDS011;44771;49.982;8.560;2023-04-24T22:41:51;21.02;;;19.12;;
58982;SDS011;44771;49.982;8.560;2023-04-24T22:46:53;18.40;;;16.80;;
58982;SDS011;44771;49.982;8.560;2023-04-24T22:51:56;17.70;;;16.08;;
58982;SDS011;44771;49.982;8.560;2023-04-24T22:56:58;18.58;;;16.67;;
58982;SDS011;44771;49.982;8.560;2023-04-24T23:01:59;19.98;;;17.83;;
58982;SDS011;44771;49.982;8.560;2023-04-24T23:07:03;17.20;;;15.68;;
58982;SDS011;44771;49.982;8.560;2023-04-24T23:12:04;19.80;;;17.90;;
58982;SDS011;44771;49.982;8.560;2023-04-24T23:17:09;23.60;;;17.33;;
58982;SDS011;44771;49.982;8.560;2023-04-24T23:22:12;19.20;;;16.15;;
58982;SDS011;44771;49.982;8.560;2023-04-24T23:27:14;18.77;;;17.00;;
58982;SDS011;44771;49.982;8.560;2023-04-24T23:32:16;18.83;;;15.75;;
58982;SDS011;44771;49.982;8.560;2023-04-24T23:37:19;15.70;;;14.40;;
58982;SDS011;44771;49.982;8.560;2023-04-24T23:42:21;16.40;;;15.00;;
58982;SDS011;44771;49.982;8.560;2023-04-24T23:47:23;14.48;;;13.02;;
58982;SDS011;44771;49.982;8.560;2023-04-24T23:52:26;15.07;;;13.80;;
58982;SDS011;44771;49.982;8.560;2023-04-24T23:57:28;16.40;;;14.87;;
